createdAt,value
2022-08-07T00:01:44.163Z,25.72
2022-08-07T00:04:24.398Z,25.75
2022-08-07T00:06:52.412Z,25.75
2022-08-07T00:09:21.365Z,25.72
2022-08-07T00:11:56.238Z,25.81
2022-08-07T00:14:29.865Z,25.85
2022-08-07T00:16:57.074Z,25.93
2022-08-07T00:19:25.919Z,26.03
2022-08-07T00:21:56.612Z,25.83
2022-08-07T00:24:28.157Z,25.92
2022-08-07T00:27:06.293Z,25.87
2022-08-07T00:29:33.560Z,25.95
2022-08-07T00:32:03.582Z,25.96
2022-08-07T00:34:32.191Z,26.01
2022-08-07T00:36:58.739Z,26.01
2022-08-07T00:39:25.893Z,26.02
2022-08-07T00:41:53.472Z,26.13
2022-08-07T00:44:20.308Z,25.90
2022-08-07T00:46:47.294Z,26.00
2022-08-07T00:50:16.760Z,25.83
2022-08-07T00:52:00.001Z,25.90
2022-08-07T00:54:26.361Z,25.96
2022-08-07T00:56:53.227Z,25.82
2022-08-07T00:59:20.220Z,25.82
2022-08-07T01:01:58.957Z,26.05
2022-08-07T01:04:25.371Z,25.85
2022-08-07T01:06:51.729Z,25.95
2022-08-07T01:10:05.260Z,26.02
2022-08-07T01:12:27.865Z,25.87
2022-08-07T01:14:50.769Z,25.85
2022-08-07T01:17:27.426Z,25.82
2022-08-07T01:19:55.338Z,25.77
2022-08-07T01:22:29.230Z,25.84
2022-08-07T01:24:56.001Z,25.77
2022-08-07T01:27:22.365Z,25.71
2022-08-07T01:29:50.669Z,25.60
2022-08-07T01:32:17.163Z,25.60
2022-08-07T01:34:47.450Z,25.43
2022-08-07T01:37:15.606Z,25.55
2022-08-07T01:39:46.916Z,25.50
2022-08-07T01:42:37.772Z,25.52
2022-08-07T01:44:59.831Z,25.53
2022-08-07T01:48:20.695Z,25.73
2022-08-07T01:50:13.075Z,25.70
2022-08-07T01:52:49.609Z,25.67
2022-08-07T01:55:22.264Z,25.69
2022-08-07T01:58:06.428Z,25.62
2022-08-07T02:00:45.257Z,25.64
2022-08-07T02:03:21.779Z,25.55
2022-08-07T02:05:59.495Z,25.68
2022-08-07T02:08:26.625Z,25.53
2022-08-07T02:10:55.001Z,25.51
2022-08-07T02:13:21.850Z,25.50
2022-08-07T02:16:08.190Z,25.48
2022-08-07T02:18:38.397Z,25.46
2022-08-07T02:21:13.737Z,25.50
2022-08-07T02:23:42.626Z,25.44
2022-08-07T02:26:33.885Z,25.54
2022-08-07T02:28:57.463Z,25.49
2022-08-07T02:31:29.129Z,25.49
2022-08-07T02:34:03.598Z,25.62
2022-08-07T02:36:32.720Z,25.51
2022-08-07T02:38:59.700Z,25.52
2022-08-07T02:41:26.164Z,25.51
2022-08-07T02:44:03.605Z,25.51
2022-08-07T02:46:31.636Z,25.47
2022-08-07T02:48:58.089Z,25.41
2022-08-07T02:51:41.691Z,25.43
2022-08-07T02:54:09.355Z,25.39
2022-08-07T02:56:35.712Z,25.50
2022-08-07T02:59:02.304Z,25.45
2022-08-07T03:01:35.538Z,25.44
2022-08-07T03:04:07.778Z,25.41
2022-08-07T03:06:39.456Z,25.41
2022-08-07T03:09:05.814Z,25.45
2022-08-07T03:11:32.912Z,25.57
2022-08-07T03:14:05.121Z,25.48
2022-08-07T03:16:31.478Z,25.22
2022-08-07T03:18:57.841Z,25.20
2022-08-07T03:21:24.214Z,25.19
2022-08-07T03:24:18.444Z,25.21
2022-08-07T03:26:51.262Z,25.40
2022-08-07T03:29:23.268Z,25.22
2022-08-07T03:31:54.015Z,25.11
2022-08-07T03:34:22.847Z,25.20
2022-08-07T03:36:53.786Z,25.14
2022-08-07T03:39:46.426Z,25.09
2022-08-07T03:42:06.646Z,25.05
2022-08-07T03:44:34.654Z,25.09
2022-08-07T03:47:11.429Z,25.11
2022-08-07T03:49:41.045Z,25.16
2022-08-07T03:52:07.420Z,25.05
2022-08-07T03:54:54.801Z,25.05
2022-08-07T03:58:34.342Z,25.06
2022-08-07T04:00:08.075Z,24.82
2022-08-07T04:02:36.910Z,24.99
2022-08-07T04:05:07.834Z,25.14
2022-08-07T04:07:41.815Z,25.05
2022-08-07T04:10:15.732Z,25.16
2022-08-07T04:12:46.125Z,25.03
2022-08-07T04:15:13.660Z,25.06
2022-08-07T04:18:31.373Z,25.06
2022-08-07T04:20:27.682Z,25.23
2022-08-07T04:23:01.509Z,25.20
2022-08-07T04:25:29.247Z,25.06
2022-08-07T04:28:00.786Z,25.09
2022-08-07T04:30:39.360Z,25.09
2022-08-07T04:33:13.861Z,25.03
2022-08-07T04:35:42.140Z,25.00
2022-08-07T04:38:08.595Z,24.94
2022-08-07T04:40:35.062Z,25.00
2022-08-07T04:43:03.364Z,24.93
2022-08-07T04:45:57.917Z,24.90
2022-08-07T04:48:16.784Z,24.89
2022-08-07T04:50:43.429Z,24.89
2022-08-07T04:53:39.945Z,24.90
2022-08-07T04:58:11.837Z,24.90
2022-08-07T05:01:37.601Z,24.96
2022-08-07T05:04:08.269Z,24.99
2022-08-07T05:06:43.667Z,24.85
2022-08-07T05:09:17.531Z,24.83
2022-08-07T05:12:04.748Z,24.72
2022-08-07T05:14:52.510Z,24.89
2022-08-07T05:17:51.989Z,24.79
2022-08-07T05:20:07.857Z,24.84
2022-08-07T05:22:36.120Z,24.85
2022-08-07T05:25:03.232Z,24.80
2022-08-07T05:28:16.139Z,24.85
2022-08-07T05:30:30.103Z,24.83
2022-08-07T05:32:59.575Z,24.87
2022-08-07T05:35:33.402Z,24.87
2022-08-07T05:38:09.831Z,24.91
2022-08-07T05:40:36.431Z,24.92
2022-08-07T05:43:02.809Z,24.91
2022-08-07T05:45:46.565Z,24.79
2022-08-07T05:48:14.326Z,24.90
2022-08-07T05:50:42.957Z,24.93
2022-08-07T05:54:09.679Z,24.90
2022-08-07T05:56:03.774Z,24.88
2022-08-07T05:58:36.751Z,24.81
2022-08-07T06:01:04.954Z,24.70
2022-08-07T06:03:53.287Z,24.77
2022-08-07T06:06:19.013Z,24.59
2022-08-07T06:08:46.723Z,24.55
2022-08-07T06:11:13.225Z,24.61
2022-08-07T06:14:12.583Z,24.68
2022-08-07T06:16:28.211Z,24.78
2022-08-07T06:18:56.047Z,24.76
2022-08-07T06:22:16.649Z,24.66
2022-08-07T06:24:37.937Z,24.69
2022-08-07T06:26:55.144Z,24.60
2022-08-07T06:29:21.509Z,24.67
2022-08-07T06:31:51.053Z,24.62
2022-08-07T06:34:19.836Z,24.79
2022-08-07T06:36:47.888Z,24.74
2022-08-07T06:40:17.715Z,24.92
2022-08-07T06:42:04.999Z,24.88
2022-08-07T06:44:33.840Z,24.98
2022-08-07T06:47:12.498Z,24.85
2022-08-07T06:49:50.794Z,24.90
2022-08-07T06:52:31.597Z,24.71
2022-08-07T06:55:34.502Z,24.64
2022-08-07T06:57:52.234Z,24.72
2022-08-07T07:00:21.249Z,24.81
2022-08-07T07:02:54.003Z,24.91
2022-08-07T07:06:02.440Z,24.88
2022-08-07T07:08:10.040Z,24.90
2022-08-07T07:10:38.958Z,24.94
2022-08-07T07:13:14.058Z,25.13
2022-08-07T07:15:40.432Z,25.03
2022-08-07T07:18:09.458Z,24.90
2022-08-07T07:20:36.584Z,24.92
2022-08-07T07:24:06.626Z,24.98
2022-08-07T07:26:32.529Z,24.81
2022-08-07T07:29:23.593Z,24.89
2022-08-07T07:31:22.380Z,25.12
2022-08-07T07:33:48.944Z,24.87
2022-08-07T07:36:23.144Z,25.07
2022-08-07T07:38:58.996Z,24.92
2022-08-07T07:41:30.948Z,25.07
2022-08-07T07:44:17.717Z,25.08
2022-08-07T07:46:55.718Z,24.92
2022-08-07T07:50:35.101Z,24.96
2022-08-07T07:52:13.163Z,24.95
2022-08-07T07:54:39.974Z,25.02
2022-08-07T07:57:16.928Z,25.02
2022-08-07T07:59:52.685Z,25.15
2022-08-07T08:02:33.908Z,25.00
2022-08-07T08:05:01.630Z,25.13
2022-08-07T08:07:35.916Z,24.94
2022-08-07T08:10:08.647Z,24.98
2022-08-07T08:12:51.590Z,25.02
2022-08-07T08:15:23.336Z,25.06
2022-08-07T08:17:57.357Z,24.86
2022-08-07T08:20:31.853Z,24.96
2022-08-07T08:22:58.566Z,24.99
2022-08-07T08:25:42.259Z,25.32
2022-08-07T08:28:09.469Z,25.27
2022-08-07T08:30:42.518Z,25.21
2022-08-07T08:33:10.589Z,25.38
2022-08-07T08:35:46.961Z,25.44
2022-08-07T08:38:16.171Z,25.46
2022-08-07T08:40:43.915Z,25.23
2022-08-07T08:43:13.755Z,25.18
2022-08-07T08:45:59.013Z,25.20
2022-08-07T08:48:32.379Z,25.30
2022-08-07T08:50:59.007Z,25.43
2022-08-07T08:53:29.838Z,25.33
2022-08-07T08:55:58.568Z,25.36
2022-08-07T08:58:29.016Z,25.44
2022-08-07T09:00:56.451Z,25.38
2022-08-07T09:03:23.576Z,25.42
2022-08-07T09:06:11.347Z,25.49
2022-08-07T09:08:39.304Z,25.32
2022-08-07T09:11:05.777Z,25.37
2022-08-07T09:13:36.946Z,25.38
2022-08-07T09:16:24.119Z,25.41
2022-08-07T09:18:53.374Z,25.34
2022-08-07T09:21:33.914Z,25.56
2022-08-07T09:24:32.969Z,25.40
2022-08-07T09:26:58.019Z,25.38
2022-08-07T09:30:05.170Z,25.52
2022-08-07T09:32:18.852Z,25.78
2022-08-07T09:34:53.966Z,25.77
2022-08-07T09:37:20.667Z,25.80
2022-08-07T09:40:07.040Z,25.77
2022-08-07T09:42:35.178Z,25.65
2022-08-07T09:47:24.851Z,25.70
2022-08-07T09:48:00.131Z,25.80
2022-08-07T09:50:30.315Z,25.73
2022-08-07T09:52:56.709Z,25.68
2022-08-07T09:55:29.252Z,25.53
2022-08-07T09:57:56.402Z,25.26
2022-08-07T10:00:24.310Z,24.95
2022-08-07T10:02:56.529Z,24.60
2022-08-07T10:05:59.101Z,24.60
2022-08-07T10:08:09.318Z,24.78
2022-08-07T10:11:00.254Z,25.29
2022-08-07T10:13:54.878Z,25.60
2022-08-07T10:16:08.639Z,24.88
2022-08-07T10:18:36.153Z,24.85
2022-08-07T10:21:02.527Z,25.14
2022-08-07T10:24:04.933Z,25.59
2022-08-07T10:26:15.224Z,25.76
2022-08-07T10:28:50.936Z,25.95
2022-08-07T10:31:18.600Z,25.94
2022-08-07T10:34:05.707Z,26.02
2022-08-07T10:36:31.320Z,26.21
2022-08-07T10:39:04.412Z,26.31
2022-08-07T10:41:47.391Z,26.18
2022-08-07T10:44:19.287Z,26.19
2022-08-07T10:46:54.923Z,26.17
2022-08-07T10:49:24.435Z,26.23
2022-08-07T10:52:12.942Z,26.24
2022-08-07T10:54:37.537Z,26.24
2022-08-07T10:57:04.660Z,26.14
2022-08-07T10:59:31.904Z,26.20
2022-08-07T11:02:11.838Z,26.17
2022-08-07T11:04:39.054Z,26.22
2022-08-07T11:07:05.565Z,26.18
2022-08-07T11:10:09.210Z,26.14
2022-08-07T11:12:37.123Z,26.17
2022-08-07T11:15:03.502Z,26.02
2022-08-07T11:17:45.215Z,26.24
2022-08-07T11:20:12.253Z,26.14
2022-08-07T11:22:45.835Z,26.16
2022-08-07T11:25:12.838Z,26.17
2022-08-07T11:28:02.434Z,26.09
2022-08-07T11:30:39.148Z,26.05
2022-08-07T11:33:14.177Z,26.23
2022-08-07T11:35:59.591Z,26.16
2022-08-07T11:38:28.384Z,26.27
2022-08-07T11:40:56.105Z,26.22
2022-08-07T11:43:29.777Z,26.04
2022-08-07T11:46:08.894Z,26.21
2022-08-07T11:48:35.754Z,25.99
2022-08-07T11:51:03.964Z,26.12
2022-08-07T11:53:35.632Z,26.17
2022-08-07T11:56:26.049Z,26.17
2022-08-07T11:58:49.898Z,26.17
2022-08-07T12:01:19.929Z,26.21
2022-08-07T12:03:48.317Z,26.08
2022-08-07T12:06:39.960Z,25.98
2022-08-07T12:11:20.380Z,26.28
2022-08-07T12:13:48.150Z,26.34
2022-08-07T12:16:16.107Z,26.34
2022-08-07T12:18:56.556Z,26.44
2022-08-07T12:21:55.884Z,26.60
2022-08-07T12:24:12.493Z,26.50
2022-08-07T12:26:55.631Z,26.73
2022-08-07T12:29:37.226Z,26.54
2022-08-07T12:32:05.419Z,26.67
2022-08-07T12:34:33.378Z,26.63
2022-08-07T12:36:59.740Z,26.59
2022-08-07T12:39:43.288Z,26.71
2022-08-07T12:42:13.137Z,26.70
2022-08-07T12:44:39.747Z,26.51
2022-08-07T12:47:11.373Z,26.61
2022-08-07T12:49:44.275Z,26.74
2022-08-07T12:52:19.319Z,26.75
2022-08-07T12:54:55.030Z,26.85
2022-08-07T12:57:23.008Z,26.76
2022-08-07T12:59:54.544Z,26.72
2022-08-07T13:02:22.021Z,26.70
2022-08-07T13:05:01.455Z,26.66
2022-08-07T13:08:12.602Z,26.67
2022-08-07T13:10:29.378Z,26.65
2022-08-07T13:13:01.343Z,26.67
2022-08-07T13:15:32.513Z,26.65
2022-08-07T13:17:59.533Z,26.65
2022-08-07T13:20:27.740Z,26.68
2022-08-07T13:22:54.335Z,26.63
2022-08-07T13:25:28.771Z,26.61
2022-08-07T13:28:12.531Z,26.63
2022-08-07T13:30:43.859Z,26.59
2022-08-07T13:34:14.399Z,26.64
2022-08-07T13:36:00.348Z,26.69
2022-08-07T13:38:27.986Z,26.67
2022-08-07T13:40:57.017Z,26.68
2022-08-07T13:43:25.863Z,26.73
2022-08-07T13:46:12.195Z,26.71
2022-08-07T13:48:40.755Z,26.69
2022-08-07T13:51:27.064Z,26.78
2022-08-07T13:54:00.464Z,26.76
2022-08-07T13:56:35.377Z,26.79
2022-08-07T13:59:10.401Z,26.78
2022-08-07T14:01:51.471Z,26.74
2022-08-07T14:04:29.914Z,26.73
2022-08-07T14:07:03.218Z,26.75
2022-08-07T14:10:01.933Z,26.73
2022-08-07T14:12:16.633Z,26.71
2022-08-07T14:14:53.856Z,26.77
2022-08-07T14:17:51.657Z,26.73
2022-08-07T14:20:41.675Z,26.72
2022-08-07T14:22:52.906Z,26.82
2022-08-07T14:25:19.257Z,26.82
2022-08-07T14:28:20.986Z,26.80
2022-08-07T14:30:33.440Z,26.80
2022-08-07T14:32:59.807Z,26.78
2022-08-07T14:35:45.412Z,26.78
2022-08-07T14:38:26.552Z,26.83
2022-08-07T14:40:57.508Z,26.82
2022-08-07T14:43:57.911Z,26.79
2022-08-07T14:46:10.792Z,26.91
2022-08-07T14:48:37.157Z,26.89
2022-08-07T14:51:03.531Z,26.85
2022-08-07T14:54:05.816Z,26.91
2022-08-07T14:56:30.132Z,26.87
2022-08-07T14:58:56.934Z,26.94
2022-08-07T15:01:23.299Z,26.91
2022-08-07T15:06:36.086Z,26.96
2022-08-07T15:09:03.448Z,26.95
2022-08-07T15:11:53.849Z,26.84
2022-08-07T15:14:30.647Z,27.00
2022-08-07T15:17:00.988Z,26.99
2022-08-07T15:20:30.878Z,26.95
2022-08-07T15:28:07.907Z,26.89
2022-08-07T15:30:32.818Z,26.88
2022-08-07T15:33:03.959Z,26.89
2022-08-07T15:36:04.932Z,26.90
2022-08-07T15:41:23.397Z,26.85
2022-08-07T15:44:04.505Z,26.91
2022-08-07T15:46:38.493Z,26.89
2022-08-07T15:49:16.400Z,26.87
2022-08-07T15:54:24.217Z,26.81
2022-08-07T15:56:52.724Z,26.82
2022-08-07T15:59:19.076Z,26.82
2022-08-07T16:01:45.467Z,26.82
2022-08-07T16:04:28.977Z,26.79
2022-08-07T16:06:58.432Z,26.79
2022-08-07T16:09:41.190Z,26.79
2022-08-07T16:12:12.252Z,26.77
2022-08-07T16:14:38.791Z,26.76
2022-08-07T16:17:14.826Z,26.77
2022-08-07T16:19:58.919Z,26.80
2022-08-07T16:22:33.399Z,26.81
2022-08-07T16:25:02.571Z,26.80
2022-08-07T16:27:39.829Z,26.84
2022-08-07T16:30:31.198Z,26.83
2022-08-07T16:32:54.224Z,26.88
2022-08-07T16:35:51.700Z,26.83
2022-08-07T16:38:09.451Z,26.85
2022-08-07T16:40:36.244Z,26.86
2022-08-07T16:43:22.488Z,26.83
2022-08-07T16:46:34.711Z,26.82
2022-08-07T16:48:53.670Z,26.82
2022-08-07T16:52:01.893Z,26.94
2022-08-07T16:54:09.638Z,26.92
2022-08-07T16:56:37.668Z,26.87
2022-08-07T16:59:10.853Z,26.93
2022-08-07T17:01:41.641Z,26.95
2022-08-07T17:04:12.362Z,27.02
2022-08-07T17:06:44.872Z,26.92
2022-08-07T17:09:14.154Z,26.97
2022-08-07T17:12:01.282Z,26.95
2022-08-07T17:14:28.047Z,26.98
2022-08-07T17:16:55.891Z,27.00
2022-08-07T17:20:00.898Z,27.02
2022-08-07T17:22:10.627Z,27.01
2022-08-07T17:24:37.075Z,26.93
2022-08-07T17:27:03.433Z,26.95
2022-08-07T17:30:14.284Z,27.04
2022-08-07T17:32:51.947Z,27.07
2022-08-07T17:35:50.146Z,26.97
2022-08-07T17:38:06.595Z,26.98
2022-08-07T17:40:35.279Z,27.08
2022-08-07T17:43:01.678Z,27.06
2022-08-07T17:45:28.081Z,27.02
2022-08-07T17:47:54.572Z,26.95
2022-08-07T17:50:21.687Z,27.14
2022-08-07T17:52:48.070Z,27.00
2022-08-07T17:55:14.425Z,27.02
2022-08-07T17:58:01.988Z,27.07
2022-08-07T18:00:34.721Z,27.04
2022-08-07T18:03:17.986Z,26.97
2022-08-07T18:06:01.814Z,26.99
2022-08-07T18:08:31.225Z,27.01
2022-08-07T18:12:07.730Z,26.98
2022-08-07T18:13:44.008Z,26.97
2022-08-07T18:16:11.976Z,26.98
2022-08-07T18:21:03.317Z,26.94
2022-08-07T18:21:51.820Z,26.99
2022-08-07T18:24:11.748Z,26.99
2022-08-07T18:26:58.092Z,26.97
2022-08-07T18:30:06.795Z,26.95
2022-08-07T18:32:11.068Z,26.94
2022-08-07T18:35:01.019Z,26.89
2022-08-07T18:38:56.458Z,26.88
2022-08-07T18:40:40.545Z,26.90
2022-08-07T18:42:56.466Z,26.89
2022-08-07T18:45:44.993Z,26.88
2022-08-07T18:48:09.434Z,26.86
2022-08-07T18:50:43.839Z,26.84
2022-08-07T18:53:13.887Z,26.81
2022-08-07T18:55:42.964Z,26.78
2022-08-07T18:58:22.675Z,26.85
2022-08-07T19:00:54.182Z,26.78
2022-08-07T19:03:36.154Z,26.82
2022-08-07T19:06:05.158Z,26.80
2022-08-07T19:08:31.570Z,26.85
2022-08-07T19:10:58.302Z,26.81
2022-08-07T19:13:24.670Z,26.77
2022-08-07T19:16:02.724Z,26.74
2022-08-07T19:18:37.390Z,26.70
2022-08-07T19:21:44.287Z,26.67
2022-08-07T19:24:00.148Z,26.65
2022-08-07T19:26:28.925Z,26.64
2022-08-07T19:30:57.628Z,26.63
2022-08-07T19:32:10.927Z,26.63
2022-08-07T19:34:34.531Z,26.63
2022-08-07T19:37:09.909Z,26.59
2022-08-07T19:39:58.006Z,26.53
2022-08-07T19:42:29.529Z,26.54
2022-08-07T19:44:56.994Z,26.50
2022-08-07T19:47:27.740Z,26.51
2022-08-07T19:49:58.044Z,26.49
2022-08-07T19:52:25.396Z,26.47
2022-08-07T19:54:56.375Z,26.42
2022-08-07T19:58:01.760Z,26.41
2022-08-07T20:00:10.345Z,26.35
2022-08-07T20:02:38.931Z,25.91
2022-08-07T20:05:07.629Z,26.09
2022-08-07T20:07:45.904Z,26.09
2022-08-07T20:10:35.219Z,25.97
2022-08-07T20:13:00.726Z,25.57
2022-08-07T20:15:33.159Z,25.60
2022-08-07T20:18:04.448Z,25.49
2022-08-07T20:20:30.901Z,25.36
2022-08-07T20:22:57.268Z,25.28
2022-08-07T20:25:23.634Z,25.16
2022-08-07T20:27:58.080Z,25.22
2022-08-07T20:30:29.613Z,24.95
2022-08-07T20:32:57.316Z,24.98
2022-08-07T20:35:27.087Z,25.03
2022-08-07T20:37:58.785Z,24.91
2022-08-07T20:40:32.437Z,25.09
2022-08-07T20:43:00.968Z,24.98
2022-08-07T20:45:33.457Z,25.05
2022-08-07T20:48:28.852Z,24.88
2022-08-07T20:50:56.992Z,24.94
2022-08-07T20:53:25.987Z,25.04
2022-08-07T20:56:10.478Z,24.80
2022-08-07T20:58:36.855Z,24.81
2022-08-07T21:01:04.825Z,24.81
2022-08-07T21:03:31.461Z,24.87
2022-08-07T21:06:01.338Z,24.83
2022-08-07T21:08:32.338Z,24.60
2022-08-07T21:11:04.735Z,24.58
2022-08-07T21:13:57.110Z,24.65
2022-08-07T21:16:17.441Z,24.61
2022-08-07T21:18:46.113Z,24.48
2022-08-07T21:21:16.725Z,24.27
2022-08-07T21:23:50.393Z,24.24
2022-08-07T21:26:17.155Z,24.32
2022-08-07T21:28:49.268Z,24.31
2022-08-07T21:31:16.930Z,24.31
2022-08-07T21:34:03.265Z,24.20
2022-08-07T21:36:33.186Z,24.32
2022-08-07T21:38:59.591Z,24.06
2022-08-07T21:41:26.369Z,24.03
2022-08-07T21:43:56.129Z,24.03
2022-08-07T21:46:25.009Z,24.04
2022-08-07T21:48:57.938Z,23.99
2022-08-07T21:51:25.099Z,24.17
2022-08-07T21:53:52.795Z,23.96
2022-08-07T21:56:37.675Z,23.77
2022-08-07T21:59:06.312Z,23.81
2022-08-07T22:02:10.703Z,23.72
2022-08-07T22:04:20.370Z,23.83
2022-08-07T22:06:49.870Z,23.79
2022-08-07T22:09:17.920Z,24.10
2022-08-07T22:12:05.276Z,24.18
2022-08-07T22:14:36.329Z,24.11
2022-08-07T22:17:03.931Z,24.12
2022-08-07T22:19:30.593Z,24.09
2022-08-07T22:22:02.143Z,24.28
2022-08-07T22:24:33.031Z,24.20
2022-08-07T22:26:59.697Z,24.04
2022-08-07T22:29:38.081Z,23.95
2022-08-07T22:32:13.048Z,24.12
2022-08-07T22:34:49.787Z,24.30
2022-08-07T22:37:19.602Z,24.32
2022-08-07T22:39:53.149Z,24.36
2022-08-07T22:42:25.885Z,24.55
2022-08-07T22:45:21.741Z,24.36
2022-08-07T22:47:52.696Z,24.56
2022-08-07T22:50:20.918Z,24.70
2022-08-07T22:52:55.268Z,24.37
2022-08-07T22:55:23.390Z,24.41
2022-08-07T22:57:56.670Z,24.19
2022-08-07T23:00:28.571Z,24.26
2022-08-07T23:02:55.549Z,24.19
2022-08-07T23:06:09.268Z,24.24
2022-08-07T23:08:22.325Z,24.30
2022-08-07T23:10:56.401Z,24.49
2022-08-07T23:13:29.369Z,24.77
2022-08-07T23:16:07.028Z,24.97
2022-08-07T23:18:35.076Z,25.08
2022-08-07T23:21:08.610Z,25.10
2022-08-07T23:24:05.485Z,25.15
2022-08-07T23:26:23.332Z,25.28
2022-08-07T23:28:54.454Z,25.30
2022-08-07T23:32:50.161Z,25.36
2022-08-07T23:34:34.161Z,25.38
2022-08-07T23:37:20.512Z,25.06
2022-08-07T23:39:41.730Z,24.89
2022-08-07T23:42:08.146Z,25.06
2022-08-07T23:44:34.506Z,25.10
2022-08-07T23:47:00.872Z,25.06
2022-08-07T23:49:42.269Z,25.16
2022-08-07T23:53:02.037Z,25.11
2022-08-07T23:54:59.927Z,25.25
2022-08-07T23:57:27.719Z,25.14
